NRCO2: Canadian River at Norman, OK

                                SHEF ID:       NRCO2     Canadian River at Norman, OK
STATION TYPE:

STAGE RIV-FLOW BAT-LOAD
ft cfs volt
Ccp-Rev Ccp-Rev Ccp-Rev
(America/Chicago)
01/28 00:00 87.30 739 11.37
01/28 01:00 87.26 714 11.37
01/28 02:00 87.22 689 11.37
01/28 03:00 87.21 683 11.37
01/28 04:00 87.23 695 11.37
01/28 05:00 87.21 683 11.37
01/28 06:00 87.19 671 11.37
01/28 07:00 87.09 610 ----
01/28 08:00 87.12 628 11.37
01/28 09:00 87.04 580 11.37
01/28 10:00 87.00 557 11.37
01/28 11:00 86.97 540 11.37
01/28 12:00 86.95 528 11.37
01/28 13:00 86.92 512 11.46
01/28 14:00 86.90 501 12.09
01/28 15:00 86.88 490 12.09
01/28 16:00 86.84 469 12.01
01/28 17:00 86.85 474 11.93
01/28 18:00 86.87 485 11.77
01/28 19:00 86.88 490 11.77
01/28 20:00 86.86 479 11.70
01/28 21:00 86.87 485 11.70
01/28 22:00 86.86 479 11.70
01/28 23:00 86.84 469 11.61
Data processed at Mon 29Jan2024 05:19 GMT

Parsing this webpage?

Checkout our new Data API! CWMSDataAPI (CDA)

Timeseries IDs (TSIDs)

TSIDs used from left to right in the data table
NORM.Stage.Inst.1Hour.0.Ccp-Rev
NORM.Flow.Inst.1Hour.0.Ccp-Rev
NORM.Volt-Battery Load.Inst.1Hour.0.Ccp-Rev

                            

All information presented herein is the property of the government of the United States of America and may be revised or deleted at any time without prior notice. Dissemination of this information without the expressed written consent of the Public Affairs Office, Tulsa District U.S. Army Corps of Engineers is strictly prohibited. These data are gathered electronically and, as presented, have NOT undergone any form of quality control. These data are NOT guaranteed to be valid or correct.